aviador You're here:

YBWX Decoded Metar

in
Report Time2017-12-16 03:00:00
UTC Time2017-12-16 03:40:10
Flight Rules unknown UNKNOWN
Wind220° at 20 kt
W.Decomp.*RWY 21: 19.7 kt HW 3.5 kt RCW
W.Rank220° ranks 7
Current wind is above 220° avg. (12.9)
VisibilityN/A
Phenomena:N/A
Clouds:N/A
Expected CloudBase > 2,800 ft AGL from Temp-Dew spread
CeilingNone
Temp27°C
Dew Point20°C (66% RH)
Heat Index28.5°C
AAT23.5°C
QNH1010 hPa
Raw Report
METAR YBWX 160300Z AUTO 22020KT //// // ////// 27/20 Q1010=

Extra information for YBWX:More info

Social comments